sensor_id;sensor_type;location;lat;lon;timestamp;pressure;altitude;pressure_sealevel;temperature;humidity
829;BME280;396;52.558;13.188;2023-04-01T00:01:50;99146.28;;;10.19;100.00
829;BME280;396;52.558;13.188;2023-04-01T00:04:16;99145.81;;;10.17;100.00
829;BME280;396;52.558;13.188;2023-04-01T00:06:43;99148.38;;;10.14;100.00
829;BME280;396;52.558;13.188;2023-04-01T00:09:10;99155.28;;;10.11;100.00
829;BME280;396;52.558;13.188;2023-04-01T00:11:36;99144.88;;;10.13;100.00
829;BME280;396;52.558;13.188;2023-04-01T00:14:03;99149.66;;;10.16;100.00
829;BME280;396;52.558;13.188;2023-04-01T00:16:30;99150.13;;;10.18;100.00
829;BME280;396;52.558;13.188;2023-04-01T00:18:58;99155.53;;;10.18;100.00
829;BME280;396;52.558;13.188;2023-04-01T00:21:25;99153.94;;;10.17;100.00
829;BME280;396;52.558;13.188;2023-04-01T00:23:52;99152.69;;;10.15;100.00
829;BME280;396;52.558;13.188;2023-04-01T00:26:19;99150.78;;;10.15;100.00
829;BME280;396;52.558;13.188;2023-04-01T00:28:46;99148.50;;;10.17;100.00
829;BME280;396;52.558;13.188;2023-04-01T00:31:13;99159.22;;;10.14;100.00
829;BME280;396;52.558;13.188;2023-04-01T00:33:40;99157.31;;;10.14;100.00
829;BME280;396;52.558;13.188;2023-04-01T00:36:10;99149.50;;;10.13;100.00
829;BME280;396;52.558;13.188;2023-04-01T00:38:38;99159.22;;;10.14;100.00
829;BME280;396;52.558;13.188;2023-04-01T00:41:06;99155.28;;;10.11;100.00
829;BME280;396;52.558;13.188;2023-04-01T00:43:33;99157.31;;;10.14;100.00
829;BME280;396;52.558;13.188;2023-04-01T00:46:00;99157.31;;;10.14;100.00
829;BME280;396;52.558;13.188;2023-04-01T00:48:28;99157.75;;;10.16;100.00
829;BME280;396;52.558;13.188;2023-04-01T00:51:00;99152.34;;;10.16;100.00
829;BME280;396;52.558;13.188;2023-04-01T00:53:30;99156.84;;;10.12;100.00
829;BME280;396;52.558;13.188;2023-04-01T00:56:00;99150.78;;;10.15;100.00
829;BME280;396;52.558;13.188;2023-04-01T00:58:29;99159.34;;;10.17;100.00
829;BME280;396;52.558;13.188;2023-04-01T01:00:59;99157.91;;;10.20;100.00
829;BME280;396;52.558;13.188;2023-04-01T01:03:26;99160.25;;;10.21;100.00
829;BME280;396;52.558;13.188;2023-04-01T01:06:09;99168.06;;;10.23;100.00
829;BME280;396;52.558;13.188;2023-04-01T01:08:52;99163.66;;;10.18;100.00
829;BME280;396;52.558;13.188;2023-04-01T01:11:30;99154.41;;;10.19;100.00
829;BME280;396;52.558;13.188;2023-04-01T01:14:05;99150.13;;;10.18;100.00
829;BME280;396;52.558;13.188;2023-04-01T01:16:36;99153.94;;;10.17;100.00
829;BME280;396;52.558;13.188;2023-04-01T01:19:09;99156.41;;;10.22;100.00
829;BME280;396;52.558;13.188;2023-04-01T01:21:55;99156.75;;;10.21;100.00
829;BME280;396;52.558;13.188;2023-04-01T01:24:40;99150.13;;;10.18;100.00
829;BME280;396;52.558;13.188;2023-04-01T01:27:10;99153.94;;;10.17;100.00
829;BME280;396;52.558;13.188;2023-04-01T01:30:11;99163.66;;;10.18;100.00
829;BME280;396;52.558;13.188;2023-04-01T01:32:59;99167.13;;;10.19;100.00
829;BME280;396;52.558;13.188;2023-04-01T01:35:33;99165.44;;;10.14;100.00
829;BME280;396;52.558;13.188;2023-04-01T01:38:04;99165.75;;;10.13;100.00
829;BME280;396;52.558;13.188;2023-04-01T01:40:33;99170.72;;;10.10;100.00
829;BME280;396;52.558;13.188;2023-04-01T01:43:04;99166.75;;;10.08;100.00
829;BME280;396;52.558;13.188;2023-04-01T01:45:33;99165.44;;;10.14;100.00
829;BME280;396;52.558;13.188;2023-04-01T01:48:02;99166.22;;;10.15;100.00
829;BME280;396;52.558;13.188;2023-04-01T01:50:33;99172.09;;;10.17;100.00
829;BME280;396;52.558;13.188;2023-04-01T01:53:05;99165.09;;;10.16;100.00
829;BME280;396;52.558;13.188;2023-04-01T01:55:33;99169.06;;;10.18;100.00
829;BME280;396;52.558;13.188;2023-04-01T01:58:07;99164.44;;;10.19;100.00
829;BME280;396;52.558;13.188;2023-04-01T02:00:39;99169.16;;;10.22;100.00
829;BME280;396;52.558;13.188;2023-04-01T02:03:06;99169.16;;;10.22;100.00
829;BME280;396;52.558;13.188;2023-04-01T02:05:35;99166.00;;;10.20;100.00
829;BME280;396;52.558;13.188;2023-04-01T02:08:05;99160.94;;;10.18;100.00
829;BME280;396;52.558;13.188;2023-04-01T02:10:35;99165.09;;;10.16;100.00
829;BME280;396;52.558;13.188;2023-04-01T02:13:08;99177.34;;;10.13;100.00
829;BME280;396;52.558;13.188;2023-04-01T02:15:42;99168.59;;;10.16;100.00
829;BME280;396;52.558;13.188;2023-04-01T02:18:11;99178.50;;;10.12;100.00
829;BME280;396;52.558;13.188;2023-04-01T02:20:41;99177.69;;;10.11;100.00
829;BME280;396;52.558;13.188;2023-04-01T02:23:10;99176.78;;;10.07;100.00
829;BME280;396;52.558;13.188;2023-04-01T02:25:37;99174.88;;;10.08;100.00
829;BME280;396;52.558;13.188;2023-04-01T02:28:06;99170.13;;;10.05;100.00
829;BME280;396;52.558;13.188;2023-04-01T02:30:36;99176.78;;;10.07;100.00
829;BME280;396;52.558;13.188;2023-04-01T02:33:05;99177.13;;;10.06;100.00
829;BME280;396;52.558;13.188;2023-04-01T02:35:33;99172.28;;;10.11;100.00
829;BME280;396;52.558;13.188;2023-04-01T02:38:03;99175.34;;;10.10;100.00
829;BME280;396;52.558;13.188;2023-04-01T02:40:41;99176.56;;;10.13;100.00
829;BME280;396;52.558;13.188;2023-04-01T02:43:08;99182.78;;;10.13;100.00
829;BME280;396;52.558;13.188;2023-04-01T02:45:35;99177.25;;;10.09;100.00
829;BME280;396;52.558;13.188;2023-04-01T02:48:02;99187.94;;;10.06;100.00
829;BME280;396;52.558;13.188;2023-04-01T02:50:29;99187.34;;;10.00;100.00
829;BME280;396;52.558;13.188;2023-04-01T02:52:55;99197.84;;;10.02;100.00
829;BME280;396;52.558;13.188;2023-04-01T02:55:23;99189.72;;;10.02;100.00
829;BME280;396;52.558;13.188;2023-04-01T02:57:50;99194.66;;;10.00;100.00
829;BME280;396;52.558;13.188;2023-04-01T03:00:17;99189.25;;;10.00;100.00
829;BME280;396;52.558;13.188;2023-04-01T03:02:43;99193.44;;;9.97;100.00
829;BME280;396;52.558;13.188;2023-04-01T03:05:10;99202.47;;;10.01;100.00
829;BME280;396;52.558;13.188;2023-04-01T03:07:38;99200.22;;;10.03;100.00
829;BME280;396;52.558;13.188;2023-04-01T03:10:06;99205.31;;;10.05;100.00
829;BME280;396;52.558;13.188;2023-04-01T03:12:34;99204.81;;;10.03;100.00
829;BME280;396;52.558;13.188;2023-04-01T03:15:01;99200.53;;;10.02;100.00
829;BME280;396;52.558;13.188;2023-04-01T03:17:27;99202.00;;;9.99;100.00
829;BME280;396;52.558;13.188;2023-04-01T03:19:54;99204.25;;;9.97;100.00
829;BME280;396;52.558;13.188;2023-04-01T03:22:21;99201.19;;;9.99;100.00
829;BME280;396;52.558;13.188;2023-04-01T03:24:48;99203.31;;;9.93;100.00
829;BME280;396;52.558;13.188;2023-04-01T03:27:15;99211.69;;;10.00;100.00
829;BME280;396;52.558;13.188;2023-04-01T03:29:43;99206.28;;;10.00;100.00
829;BME280;396;52.558;13.188;2023-04-01T03:32:09;99209.09;;;10.04;100.00
829;BME280;396;52.558;13.188;2023-04-01T03:34:36;99203.69;;;10.04;100.00
829;BME280;396;52.558;13.188;2023-04-01T03:37:02;99212.75;;;10.08;100.00
829;BME280;396;52.558;13.188;2023-04-01T03:39:30;99213.88;;;10.07;100.00
829;BME280;396;52.558;13.188;2023-04-01T03:41:57;99216.22;;;10.08;100.00
829;BME280;396;52.558;13.188;2023-04-01T03:44:23;99211.94;;;10.07;100.00
829;BME280;396;52.558;13.188;2023-04-01T03:46:51;99221.34;;;10.10;100.00
829;BME280;396;52.558;13.188;2023-04-01T03:49:18;99227.84;;;10.09;100.00
829;BME280;396;52.558;13.188;2023-04-01T03:51:44;99227.66;;;10.14;100.00
829;BME280;396;52.558;13.188;2023-04-01T03:54:11;99233.53;;;10.16;100.00
829;BME280;396;52.558;13.188;2023-04-01T03:56:38;99222.69;;;10.16;100.00
829;BME280;396;52.558;13.188;2023-04-01T03:59:06;99230.81;;;10.16;100.00
829;BME280;396;52.558;13.188;2023-04-01T04:01:33;99228.13;;;10.16;100.00
829;BME280;396;52.558;13.188;2023-04-01T04:04:01;99233.06;;;10.14;100.00
829;BME280;396;52.558;13.188;2023-04-01T04:06:28;99227.19;;;10.12;100.00
829;BME280;396;52.558;13.188;2023-04-01T04:08:55;99230.53;;;10.09;100.00
829;BME280;396;52.558;13.188;2023-04-01T04:11:22;99237.56;;;10.10;100.00
829;BME280;396;52.558;13.188;2023-04-01T04:13:49;99243.91;;;10.14;100.00
829;BME280;396;52.558;13.188;2023-04-01T04:16:16;99238.34;;;10.10;100.00
829;BME280;396;52.558;13.188;2023-04-01T04:18:43;99242.50;;;10.08;100.00
829;BME280;396;52.558;13.188;2023-04-01T04:21:13;99245.88;;;10.05;100.00
829;BME280;396;52.558;13.188;2023-04-01T04:23:40;99250.81;;;10.03;100.00
829;BME280;396;52.558;13.188;2023-04-01T04:26:08;99244.28;;;10.04;100.00
829;BME280;396;52.558;13.188;2023-04-01T04:28:35;99250.47;;;10.04;100.00
829;BME280;396;52.558;13.188;2023-04-01T04:31:02;99249.25;;;10.02;100.00
829;BME280;396;52.558;13.188;2023-04-01T04:33:30;99247.19;;;9.99;100.00
829;BME280;396;52.558;13.188;2023-04-01T04:35:58;99252.16;;;9.97;100.00
829;BME280;396;52.558;13.188;2023-04-01T04:38:26;99249.31;;;9.93;100.00
829;BME280;396;52.558;13.188;2023-04-01T04:40:53;99250.53;;;9.96;100.00
829;BME280;396;52.558;13.188;2023-04-01T04:43:20;99251.03;;;9.98;100.00
829;BME280;396;52.558;13.188;2023-04-01T04:45:46;99249.56;;;10.00;100.00
829;BME280;396;52.558;13.188;2023-04-01T04:48:14;99259.28;;;10.01;100.00
829;BME280;396;52.558;13.188;2023-04-01T04:50:44;99259.28;;;10.01;100.00
829;BME280;396;52.558;13.188;2023-04-01T04:53:10;99262.56;;;10.07;100.00
829;BME280;396;52.558;13.188;2023-04-01T04:55:42;99266.72;;;10.04;100.00
829;BME280;396;52.558;13.188;2023-04-01T04:58:09;99261.13;;;10.09;100.00
829;BME280;396;52.558;13.188;2023-04-01T05:00:35;99266.41;;;10.06;100.00
829;BME280;396;52.558;13.188;2023-04-01T05:03:02;99264.63;;;10.10;100.00
829;BME280;396;52.558;13.188;2023-04-01T05:05:29;99267.31;;;10.10;100.00
829;BME280;396;52.558;13.188;2023-04-01T05:07:55;99260.00;;;10.10;100.00
829;BME280;396;52.558;13.188;2023-04-01T05:10:22;99267.78;;;10.12;100.00
829;BME280;396;52.558;13.188;2023-04-01T05:12:50;99277.81;;;10.11;100.00
829;BME280;396;52.558;13.188;2023-04-01T05:15:17;99271.41;;;10.16;100.00
829;BME280;396;52.558;13.188;2023-04-01T05:17:43;99272.06;;;10.13;100.00
829;BME280;396;52.558;13.188;2023-04-01T05:20:11;99276.16;;;10.19;100.00
829;BME280;396;52.558;13.188;2023-04-01T05:22:38;99278.69;;;10.24;100.00
829;BME280;396;52.558;13.188;2023-04-01T05:25:06;99281.84;;;10.26;100.00
829;BME280;396;52.558;13.188;2023-04-01T05:27:33;99283.91;;;10.29;100.00
829;BME280;396;52.558;13.188;2023-04-01T05:30:01;99286.59;;;10.29;100.00
829;BME280;396;52.558;13.188;2023-04-01T05:32:28;99284.38;;;10.31;100.00
829;BME280;396;52.558;13.188;2023-04-01T05:34:54;99287.97;;;10.35;100.00
829;BME280;396;52.558;13.188;2023-04-01T05:37:21;99285.75;;;10.38;100.00
829;BME280;396;52.558;13.188;2023-04-01T05:39:48;99286.19;;;10.40;100.00
829;BME280;396;52.558;13.188;2023-04-01T05:42:15;99289.69;;;10.40;100.00
829;BME280;396;52.558;13.188;2023-04-01T05:44:41;99287.81;;;10.41;100.00
829;BME280;396;52.558;13.188;2023-04-01T05:47:09;99298.16;;;10.39;100.00
829;BME280;396;52.558;13.188;2023-04-01T05:49:36;99297.50;;;10.42;100.00
829;BME280;396;52.558;13.188;2023-04-01T05:52:02;99301.44;;;10.44;100.00
829;BME280;396;52.558;13.188;2023-04-01T05:54:29;99301.91;;;10.46;100.00
829;BME280;396;52.558;13.188;2023-04-01T05:56:56;99306.34;;;10.51;100.00
829;BME280;396;52.558;13.188;2023-04-01T05:59:22;99309.19;;;10.54;100.00
829;BME280;396;52.558;13.188;2023-04-01T06:01:49;99307.25;;;10.55;100.00
829;BME280;396;52.558;13.188;2023-04-01T06:04:18;99315.69;;;10.53;100.00
829;BME280;396;52.558;13.188;2023-04-01T06:06:45;99317.75;;;10.56;100.00
829;BME280;396;52.558;13.188;2023-04-01T06:09:15;99316.97;;;10.56;100.00
829;BME280;396;52.558;13.188;2023-04-01T06:11:54;99324.44;;;10.59;100.00
829;BME280;396;52.558;13.188;2023-04-01T06:14:31;99325.53;;;10.58;100.00
829;BME280;396;52.558;13.188;2023-04-01T06:17:09;99326.78;;;10.60;100.00
829;BME280;396;52.558;13.188;2023-04-01T06:19:49;99328.06;;;10.63;100.00
829;BME280;396;52.558;13.188;2023-04-01T06:22:40;99331.22;;;10.65;100.00
829;BME280;396;52.558;13.188;2023-04-01T06:25:24;99327.50;;;10.70;100.00
829;BME280;396;52.558;13.188;2023-04-01T06:28:04;99337.56;;;10.69;100.00
829;BME280;396;52.558;13.188;2023-04-01T06:30:40;99327.97;;;10.72;100.00
829;BME280;396;52.558;13.188;2023-04-01T06:33:32;99331.72;;;10.79;100.00
829;BME280;396;52.558;13.188;2023-04-01T06:36:19;99339.63;;;10.84;100.00
829;BME280;396;52.558;13.188;2023-04-01T06:39:03;99340.09;;;10.86;100.00
829;BME280;396;52.558;13.188;2023-04-01T06:41:46;99344.19;;;10.93;100.00
829;BME280;396;52.558;13.188;2023-04-01T06:44:20;99351.78;;;10.99;100.00
829;BME280;396;52.558;13.188;2023-04-01T06:46:56;99350.78;;;11.04;100.00
829;BME280;396;52.558;13.188;2023-04-01T06:49:36;99351.34;;;11.09;100.00
829;BME280;396;52.558;13.188;2023-04-01T06:52:15;99353.84;;;11.15;100.00
829;BME280;396;52.558;13.188;2023-04-01T06:54:47;99350.91;;;11.20;100.00
829;BME280;396;52.558;13.188;2023-04-01T06:57:21;99356.47;;;11.23;100.00
829;BME280;396;52.558;13.188;2023-04-01T06:59:51;99361.22;;;11.26;100.00
829;BME280;396;52.558;13.188;2023-04-01T07:02:24;99360.56;;;11.29;100.00
829;BME280;396;52.558;13.188;2023-04-01T07:04:53;99355.13;;;11.29;100.00
829;BME280;396;52.558;13.188;2023-04-01T07:07:29;99360.56;;;11.29;100.00
829;BME280;396;52.558;13.188;2023-04-01T07:09:58;99369.47;;;11.30;100.00
829;BME280;396;52.558;13.188;2023-04-01T07:12:37;99361.00;;;11.31;100.00
829;BME280;396;52.558;13.188;2023-04-01T07:15:15;99363.50;;;11.36;100.00
829;BME280;396;52.558;13.188;2023-04-01T07:17:43;99367.91;;;11.41;100.00
829;BME280;396;52.558;13.188;2023-04-01T07:20:17;99371.09;;;11.43;100.00
829;BME280;396;52.558;13.188;2023-04-01T07:22:49;99372.78;;;11.48;100.00
829;BME280;396;52.558;13.188;2023-04-01T07:25:19;99370.75;;;11.45;100.00
829;BME280;396;52.558;13.188;2023-04-01T07:27:46;99367.25;;;11.44;100.00
829;BME280;396;52.558;13.188;2023-04-01T07:30:15;99376.63;;;11.47;100.00
829;BME280;396;52.558;13.188;2023-04-01T07:32:44;99382.16;;;11.50;100.00
829;BME280;396;52.558;13.188;2023-04-01T07:35:21;99384.31;;;11.57;100.00
829;BME280;396;52.558;13.188;2023-04-01T07:38:04;99384.88;;;11.62;100.00
829;BME280;396;52.558;13.188;2023-04-01T07:40:39;99386.38;;;11.60;100.00
829;BME280;396;52.558;13.188;2023-04-01T07:43:19;99389.41;;;11.58;100.00
829;BME280;396;52.558;13.188;2023-04-01T07:45:55;99397.31;;;11.63;100.00
829;BME280;396;52.558;13.188;2023-04-01T07:48:31;99389.41;;;11.71;100.00
829;BME280;396;52.558;13.188;2023-04-01T07:51:03;99387.03;;;11.81;100.00
829;BME280;396;52.558;13.188;2023-04-01T07:53:38;99385.47;;;11.80;100.00
829;BME280;396;52.558;13.188;2023-04-01T07:56:12;99393.88;;;11.88;100.00
829;BME280;396;52.558;13.188;2023-04-01T07:58:50;99395.91;;;11.91;100.00
829;BME280;396;52.558;13.188;2023-04-01T08:01:24;99401.78;;;11.93;100.00
829;BME280;396;52.558;13.188;2023-04-01T08:04:13;99403.59;;;11.89;100.00
829;BME280;396;52.558;13.188;2023-04-01T08:06:45;99406.38;;;11.80;100.00
829;BME280;396;52.558;13.188;2023-04-01T08:09:23;99399.03;;;11.80;100.00
829;BME280;396;52.558;13.188;2023-04-01T08:12:06;99404.25;;;11.73;100.00
829;BME280;396;52.558;13.188;2023-04-01T08:14:41;99405.69;;;11.71;100.00
829;BME280;396;52.558;13.188;2023-04-01T08:17:16;99407.16;;;11.68;100.00
829;BME280;396;52.558;13.188;2023-04-01T08:19:56;99412.56;;;11.68;100.00
829;BME280;396;52.558;13.188;2023-04-01T08:22:30;99404.91;;;11.70;100.00
829;BME280;396;52.558;13.188;2023-04-01T08:25:03;99410.78;;;11.72;100.00
829;BME280;396;52.558;13.188;2023-04-01T08:27:36;99418.69;;;11.77;100.00
829;BME280;396;52.558;13.188;2023-04-01T08:30:06;99420.97;;;11.75;100.00
829;BME280;396;52.558;13.188;2023-04-01T08:32:44;99420.19;;;11.75;100.00
829;BME280;396;52.558;13.188;2023-04-01T08:35:18;99417.81;;;11.73;100.00
829;BME280;396;52.558;13.188;2023-04-01T08:37:48;99431.69;;;11.72;100.00
829;BME280;396;52.558;13.188;2023-04-01T08:40:35;99434.59;;;11.54;100.00
829;BME280;396;52.558;13.188;2023-04-01T08:43:09;99442.59;;;11.39;100.00
829;BME280;396;52.558;13.188;2023-04-01T08:45:52;99435.84;;;11.24;100.00
829;BME280;396;52.558;13.188;2023-04-01T08:48:41;99445.69;;;11.16;100.00
829;BME280;396;52.558;13.188;2023-04-01T08:51:41;99444.75;;;11.12;100.00
829;BME280;396;52.558;13.188;2023-04-01T08:54:24;99453.41;;;11.05;100.00
829;BME280;396;52.558;13.188;2023-04-01T08:57:00;99446.69;;;10.91;100.00
829;BME280;396;52.558;13.188;2023-04-01T08:59:50;99445.09;;;10.90;100.00
829;BME280;396;52.558;13.188;2023-04-01T09:05:36;99441.78;;;10.84;100.00
829;BME280;396;52.558;13.188;2023-04-01T09:08:15;99446.94;;;10.77;100.00
829;BME280;396;52.558;13.188;2023-04-01T09:11:01;99463.41;;;10.72;100.00
829;BME280;396;52.558;13.188;2023-04-01T09:16:55;99460.00;;;10.54;100.00
829;BME280;396;52.558;13.188;2023-04-01T09:19:35;99469.78;;;10.46;100.00
829;BME280;396;52.558;13.188;2023-04-01T09:22:15;99469.13;;;10.49;100.00
829;BME280;396;52.558;13.188;2023-04-01T09:25:02;99469.13;;;10.49;100.00
829;BME280;396;52.558;13.188;2023-04-01T09:27:36;99469.63;;;10.43;100.00
829;BME280;396;52.558;13.188;2023-04-01T09:36:07;99485.38;;;10.49;100.00
829;BME280;396;52.558;13.188;2023-04-01T09:38:52;99487.59;;;10.47;100.00
829;BME280;396;52.558;13.188;2023-04-01T09:41:28;99484.09;;;10.47;100.00
829;BME280;396;52.558;13.188;2023-04-01T09:44:01;99496.00;;;10.54;100.00
829;BME280;396;52.558;13.188;2023-04-01T09:46:45;99495.53;;;10.52;100.00
829;BME280;396;52.558;13.188;2023-04-01T09:49:37;99502.66;;;10.57;100.00
829;BME280;396;52.558;13.188;2023-04-01T09:52:18;99497.44;;;10.52;100.00
829;BME280;396;52.558;13.188;2023-04-01T09:55:04;99503.78;;;10.56;100.00
829;BME280;396;52.558;13.188;2023-04-01T09:58:04;99503.97;;;10.51;100.00
829;BME280;396;52.558;13.188;2023-04-01T10:01:07;99510.53;;;10.50;100.00
829;BME280;396;52.558;13.188;2023-04-01T10:04:04;99517.91;;;10.41;100.00
829;BME280;396;52.558;13.188;2023-04-01T10:13:00;99520.72;;;10.44;100.00
829;BME280;396;52.558;13.188;2023-04-01T10:15:49;99528.53;;;10.46;100.00
829;BME280;396;52.558;13.188;2023-04-01T10:18:39;99526.13;;;10.44;100.00
829;BME280;396;52.558;13.188;2023-04-01T10:24:35;99533.94;;;10.46;100.00
829;BME280;396;52.558;13.188;2023-04-01T10:30:38;99538.25;;;10.47;100.00
829;BME280;396;52.558;13.188;2023-04-01T10:33:26;99542.34;;;10.53;100.00
829;BME280;396;52.558;13.188;2023-04-01T10:36:34;99545.84;;;10.53;100.00
829;BME280;396;52.558;13.188;2023-04-01T10:39:33;99549.75;;;10.35;100.00
829;BME280;396;52.558;13.188;2023-04-01T10:42:15;99546.63;;;10.24;100.00
829;BME280;396;52.558;13.188;2023-04-01T10:48:07;99549.38;;;9.98;100.00
829;BME280;396;52.558;13.188;2023-04-01T10:51:11;99549.53;;;10.02;100.00
829;BME280;396;52.558;13.188;2023-04-01T10:53:49;99555.53;;;10.07;100.00
829;BME280;396;52.558;13.188;2023-04-01T10:56:39;99552.03;;;10.16;100.00
829;BME280;396;52.558;13.188;2023-04-01T10:59:26;99560.47;;;10.14;100.00
829;BME280;396;52.558;13.188;2023-04-01T11:02:18;99559.34;;;10.15;100.00
829;BME280;396;52.558;13.188;2023-04-01T11:08:37;99561.13;;;10.11;100.00
829;BME280;396;52.558;13.188;2023-04-01T11:11:35;99566.69;;;10.15;100.00
829;BME280;396;52.558;13.188;2023-04-01T11:17:48;99569.41;;;10.06;100.00
829;BME280;396;52.558;13.188;2023-04-01T11:20:45;99572.41;;;10.13;100.00
829;BME280;396;52.558;13.188;2023-04-01T11:23:29;99576.72;;;10.14;100.00
829;BME280;396;52.558;13.188;2023-04-01T11:26:07;99577.66;;;10.18;100.00
829;BME280;396;52.558;13.188;2023-04-01T11:29:03;99584.97;;;10.26;100.00
829;BME280;396;52.558;13.188;2023-04-01T11:31:50;99589.28;;;10.19;100.00
829;BME280;396;52.558;13.188;2023-04-01T11:34:33;99593.28;;;10.04;100.00
829;BME280;396;52.558;13.188;2023-04-01T11:37:07;99597.88;;;10.03;100.00
829;BME280;396;52.558;13.188;2023-04-01T11:39:46;99591.53;;;9.99;100.00
829;BME280;396;52.558;13.188;2023-04-01T11:42:24;99604.41;;;10.02;100.00
829;BME280;396;52.558;13.188;2023-04-01T11:45:01;99595.84;;;9.92;100.00
829;BME280;396;52.558;13.188;2023-04-01T11:48:02;99610.97;;;9.84;100.00
829;BME280;396;52.558;13.188;2023-04-01T11:50:46;99610.47;;;9.91;100.00
829;BME280;396;52.558;13.188;2023-04-01T11:53:24;99615.88;;;10.08;100.00
829;BME280;396;52.558;13.188;2023-04-01T11:55:59;99619.34;;;10.17;100.00
829;BME280;396;52.558;13.188;2023-04-01T11:58:37;99628.75;;;10.28;100.00
829;BME280;396;52.558;13.188;2023-04-01T12:01:19;99625.09;;;10.24;100.00
829;BME280;396;52.558;13.188;2023-04-01T12:04:30;99624.28;;;10.15;100.00
829;BME280;396;52.558;13.188;2023-04-01T12:07:09;99625.09;;;10.07;100.00
829;BME280;396;52.558;13.188;2023-04-01T12:09:45;99636.56;;;10.04;100.00
829;BME280;396;52.558;13.188;2023-04-01T12:12:19;99639.78;;;9.89;100.00
829;BME280;396;52.558;13.188;2023-04-01T12:15:00;99649.78;;;9.88;100.00
829;BME280;396;52.558;13.188;2023-04-01T12:17:36;99644.06;;;9.81;100.00
829;BME280;396;52.558;13.188;2023-04-01T12:20:21;99649.47;;;9.72;100.00
829;BME280;396;52.558;13.188;2023-04-01T12:22:58;99651.53;;;9.75;100.00
829;BME280;396;52.558;13.188;2023-04-01T12:28:25;99657.59;;;9.81;100.00
829;BME280;396;52.558;13.188;2023-04-01T12:31:03;99657.25;;;9.74;100.00
829;BME280;396;52.558;13.188;2023-04-01T12:34:00;99661.88;;;9.82;100.00
829;BME280;396;52.558;13.188;2023-04-01T12:36:40;99663.31;;;9.71;100.00
829;BME280;396;52.558;13.188;2023-04-01T12:39:22;99670.94;;;9.60;100.00
829;BME280;396;52.558;13.188;2023-04-01T12:42:04;99676.81;;;9.62;100.00
829;BME280;396;52.558;13.188;2023-04-01T12:44:55;99671.41;;;9.45;100.00
829;BME280;396;52.558;13.188;2023-04-01T12:47:37;99676.63;;;9.32;100.00
829;BME280;396;52.558;13.188;2023-04-01T12:50:28;99679.94;;;9.29;100.00
829;BME280;396;52.558;13.188;2023-04-01T12:53:06;99681.22;;;9.32;100.00
829;BME280;396;52.558;13.188;2023-04-01T12:55:40;99673.59;;;9.25;100.00
829;BME280;396;52.558;13.188;2023-04-01T12:58:24;99679.47;;;9.27;100.00
829;BME280;396;52.558;13.188;2023-04-01T13:04:25;99698.84;;;9.12;100.00
829;BME280;396;52.558;13.188;2023-04-01T13:07:13;99698.19;;;9.15;100.00
829;BME280;396;52.558;13.188;2023-04-01T13:09:47;99695.97;;;9.17;100.00
829;BME280;396;52.558;13.188;2023-04-01T13:12:37;99706.63;;;9.14;100.00
829;BME280;396;52.558;13.188;2023-04-01T13:15:15;99704.06;;;9.08;100.00
829;BME280;396;52.558;13.188;2023-04-01T13:17:52;99712.63;;;9.10;100.00
829;BME280;396;52.558;13.188;2023-04-01T13:20:29;99711.22;;;9.13;100.00
829;BME280;396;52.558;13.188;2023-04-01T13:23:09;99713.13;;;9.13;100.00
829;BME280;396;52.558;13.188;2023-04-01T13:25:42;99723.75;;;9.09;100.00
829;BME280;396;52.558;13.188;2023-04-01T13:28:15;99724.88;;;9.08;100.00
829;BME280;396;52.558;13.188;2023-04-01T13:30:49;99718.97;;;9.06;100.00
829;BME280;396;52.558;13.188;2023-04-01T13:33:25;99730.28;;;9.08;100.00
829;BME280;396;52.558;13.188;2023-04-01T13:36:05;99733.09;;;9.03;100.00
829;BME280;396;52.558;13.188;2023-04-01T13:38:46;99737.25;;;9.09;100.00
829;BME280;396;52.558;13.188;2023-04-01T13:41:23;99733.41;;;9.01;100.00
829;BME280;396;52.558;13.188;2023-04-01T13:43:58;99741.84;;;9.00;100.00
829;BME280;396;52.558;13.188;2023-04-01T13:46:39;99751.38;;;9.06;100.00
829;BME280;396;52.558;13.188;2023-04-01T13:52:37;99758.22;;;9.03;100.00
829;BME280;396;52.558;13.188;2023-04-01T13:55:30;99759.50;;;9.06;100.00
829;BME280;396;52.558;13.188;2023-04-01T14:00:56;99759.63;;;9.01;100.00
829;BME280;396;52.558;13.188;2023-04-01T14:03:40;99764.28;;;9.09;100.00
829;BME280;396;52.558;13.188;2023-04-01T14:06:28;99765.72;;;9.15;100.00
829;BME280;396;52.558;13.188;2023-04-01T14:12:09;99766.38;;;9.12;100.00
829;BME280;396;52.558;13.188;2023-04-01T14:14:54;99764.94;;;9.15;100.00
829;BME280;396;52.558;13.188;2023-04-01T14:17:34;99773.03;;;9.15;100.00
829;BME280;396;52.558;13.188;2023-04-01T14:20:26;99773.78;;;9.06;100.00
829;BME280;396;52.558;13.188;2023-04-01T14:23:14;99780.13;;;9.02;100.00
829;BME280;396;52.558;13.188;2023-04-01T14:28:41;99797.56;;;8.65;100.00
829;BME280;396;52.558;13.188;2023-04-01T14:31:41;99796.31;;;8.48;100.00
829;BME280;396;52.558;13.188;2023-04-01T14:34:28;99802.31;;;8.45;100.00
829;BME280;396;52.558;13.188;2023-04-01T14:37:07;99803.44;;;8.44;100.00
829;BME280;396;52.558;13.188;2023-04-01T14:40:10;99804.28;;;8.53;100.00
829;BME280;396;52.558;13.188;2023-04-01T14:42:58;99804.66;;;8.38;100.00
829;BME280;396;52.558;13.188;2023-04-01T14:45:51;99811.84;;;8.29;100.00
829;BME280;396;52.558;13.188;2023-04-01T14:48:28;99814.25;;;8.30;100.00
829;BME280;396;52.558;13.188;2023-04-01T14:51:03;99825.03;;;8.30;100.00
829;BME280;396;52.558;13.188;2023-04-01T14:53:37;99821.41;;;8.35;100.00
829;BME280;396;52.558;13.188;2023-04-01T14:56:07;99825.66;;;8.41;100.00
829;BME280;396;52.558;13.188;2023-04-01T14:58:43;99824.44;;;8.33;100.00
829;BME280;396;52.558;13.188;2023-04-01T15:01:25;99827.84;;;8.25;100.00
829;BME280;396;52.558;13.188;2023-04-01T15:04:02;99828.03;;;8.29;100.00